Bei Lun Hai 72 — BLDL — position and weather

sailwx.info

Track history (hours):
 
Tides and Currents Weather Stations Pressure Air Temp Water Temp Dewpoint Dewpoint Depression Visibility Wind Speed Wind Dir Waves Ship Positions

Bei Lun Hai 72

Last reported at 2018-Jun-22 19:55 UTC. Time now 2018-Jun-22 20:32 UTC.
Position N 38°26' E 118°14'.

Length 225 m; draft 7.1 m.

Type: Cargo ship. MMSI: 414032000.

Date/timePositionNaut miles runAvg speedWind from/ knotsBaromVisibWave heightAir tempDewpointWater temp
2018-Jun-22 19:55N 38°26' E 118°14'0 0.0
2018-Jun-21 15:37N 38°26' E 118°14'0 0.0
2018-Jun-20 16:46N 38°26' E 118°14'0 0.0
2018-Jun-20 16:28N 38°26' E 118°14'0 0.0
2018-Jun-20 06:43N 38°26' E 118°14'0 0.2
2018-Jun-20 06:25N 38°26' E 118°14'0 0.0
2018-Jun-20 05:58N 38°26' E 118°14'0 0.0
2018-Jun-20 05:01N 38°26' E 118°14'976662.4
2018-Jun-20 03:33N 22°15' E 120°14'113.0
2018-Jun-20 03:29N 22°16' E 120°13'612.9
2018-Jun-20 03:00N 22°21' E 120°11'713.4
2018-Jun-20 02:30N 22°27' E 120°08'813.3
2018-Jun-20 01:56N 22°35' E 120°07'613.2
2018-Jun-20 01:30N 22°40' E 120°04'612.9
2018-Jun-20 01:00N 22°46' E 120°02'612.5
2018-Jun-20 00:29N 22°52' E 119°60'5 0.2
2018-Jun-18 20:50N 22°48' E 120°03'310.6
2018-Jun-18 20:30N 22°45' E 120°05'611.5
2018-Jun-18 20:00N 22°41' E 120°09'611.2
2018-Jun-18 19:30N 22°38' E 120°14'3 5.7
2018-Jun-18 19:00N 22°36' E 120°17'0 0.0
2018-Jun-18 18:21N 22°36' E 120°17'0 0.0
2018-Jun-18 17:51N 22°36' E 120°17'0 0.0
2018-Jun-18 17:27N 22°36' E 120°17'0 0.0
2018-Jun-18 16:57N 22°36' E 120°17'0 0.0
2018-Jun-18 16:21N 22°36' E 120°17'0 0.0
2018-Jun-18 15:45N 22°36' E 120°17'0 0.0
2018-Jun-18 15:09N 22°36' E 120°17'0 0.0
2018-Jun-18 14:51N 22°36' E 120°17'0 0.0
2018-Jun-18 14:27N 22°36' E 120°17'0 0.0
2018-Jun-18 13:51N 22°36' E 120°17'0 0.0
2018-Jun-18 13:09N 22°36' E 120°17'0 0.0
2018-Jun-18 12:57N 22°36' E 120°17'0 0.0
2018-Jun-18 12:27N 22°36' E 120°17'0 0.0
2018-Jun-18 11:45N 22°36' E 120°17'0 0.0
2018-Jun-18 11:21N 22°36' E 120°17'0 0.0
2018-Jun-18 10:51N 22°36' E 120°17'0 0.0
2018-Jun-18 10:27N 22°36' E 120°17'0 0.0
2018-Jun-18 09:57N 22°36' E 120°17'0 0.0
2018-Jun-18 09:27N 22°36' E 120°17'0 0.0
2018-Jun-18 08:57N 22°36' E 120°17'0 0.0
2018-Jun-18 08:27N 22°36' E 120°17'0 0.0
2018-Jun-18 07:57N 22°36' E 120°17'0 0.0
2018-Jun-18 07:09N 22°36' E 120°17'0 0.0
2018-Jun-18 06:57N 22°36' E 120°17'0 0.0
2018-Jun-18 06:15N 22°36' E 120°17'0 0.0
2018-Jun-18 05:57N 22°36' E 120°17'0 0.0
2018-Jun-18 05:21N 22°36' E 120°17'0 0.0
2018-Jun-18 04:57N 22°36' E 120°17'9482315.9
2018-Jun-18 04:33N 38°23' E 119°18'94810432.1
2018-Jun-18 04:27N 22°36' E 120°17'9472363.1
2018-Jun-18 04:03N 38°22' E 119°26'112.8
2018-Jun-18 03:58N 38°22' E 119°28'94687356.1
2018-Jun-18 03:57N 22°36' E 120°17'9452061.5
2018-Jun-18 03:30N 38°21' E 119°35'94522540.3
2018-Jun-18 03:27N 22°36' E 120°17'0 0.0
2018-Jun-18 02:57N 22°36' E 120°17'0 0.0
2018-Jun-18 02:27N 22°36' E 120°17'0 0.0
2018-Jun-18 01:57N 22°36' E 120°17'9385945.0
2018-Jun-18 01:48N 38°14' E 120°00'9382738.7
2018-Jun-18 01:27N 22°36' E 120°17'9341958.6
2018-Jun-18 00:58N 38°11' E 120°12'93440035.6
2018-Jun-18 00:57N 22°36' E 120°17'9322101.6
2018-Jun-18 00:30N 38°08' E 120°18'93216362.0
2018-Jun-18 00:27N 22°36' E 120°17'9292098.9
2018-Jun-18 00:00N 38°06' E 120°25'92916241.0
2018-Jun-17 23:57N 22°36' E 120°17'9272081.4
2018-Jun-17 23:30N 38°04' E 120°32'92716947.0
2018-Jun-17 23:27N 22°36' E 120°17'9262091.8
2018-Jun-17 23:00N 38°02' E 120°39'92616107.8
2018-Jun-17 22:57N 22°36' E 120°17'9252078.2
2018-Jun-17 22:30N 38°01' E 120°46'92516730.3
2018-Jun-17 22:27N 22°36' E 120°17'9242089.0
2018-Jun-17 22:00N 37°60' E 120°54'92415912.2
2018-Jun-17 21:57N 22°36' E 120°17'9232086.5
2018-Jun-17 21:30N 37°58' E 121°02'92315893.5
2018-Jun-17 21:27N 22°36' E 120°17'9222025.7
2018-Jun-17 21:00N 37°57' E 121°10'92220622.0
2018-Jun-17 20:57N 22°36' E 120°17'9221929.9
2018-Jun-17 20:28N 37°56' E 121°18'92240457.4
2018-Jun-17 20:27N 22°36' E 120°17'0 0.0
2018-Jun-17 19:57N 22°36' E 120°17'0 0.0
2018-Jun-17 19:27N 22°36' E 120°17'0 0.0
2018-Jun-17 18:57N 22°36' E 120°17'0 0.0
2018-Jun-17 18:27N 22°36' E 120°17'0 0.0
2018-Jun-17 17:57N 22°36' E 120°17'0 0.0
2018-Jun-17 17:15N 22°36' E 120°17'0 0.0
2018-Jun-17 16:57N 22°36' E 120°17'0 0.0
2018-Jun-17 16:27N 22°36' E 120°17'0 0.0
2018-Jun-17 15:57N 22°36' E 120°17'0 0.0
2018-Jun-17 15:27N 22°36' E 120°17'0 0.0
2018-Jun-17 14:57N 22°36' E 120°17'0 0.0
2018-Jun-17 14:27N 22°36' E 120°17'0 0.0
2018-Jun-17 13:57N 22°36' E 120°17'0 0.0
2018-Jun-17 13:27N 22°36' E 120°17'0 0.0
2018-Jun-17 12:57N 22°36' E 120°17'0 0.0
2018-Jun-17 12:27N 22°36' E 120°17'0 0.0
2018-Jun-17 11:51N 22°36' E 120°17'0 0.0
2018-Jun-17 11:27N 22°36' E 120°17'0 0.0
2018-Jun-17 10:51N 22°36' E 120°17'0 0.0
2018-Jun-17 10:27N 22°36' E 120°17'0 0.0
2018-Jun-17 09:57N 22°36' E 120°17'0 0.0
2018-Jun-17 09:27N 22°36' E 120°17'0 0.0
2018-Jun-17 08:57N 22°36' E 120°17'0 0.0
2018-Jun-17 08:21N 22°36' E 120°17'0 0.0
2018-Jun-17 07:57N 22°36' E 120°17'0 0.0
2018-Jun-17 07:21N 22°36' E 120°17'0 0.0
2018-Jun-17 06:57N 22°36' E 120°17'0 0.0
2018-Jun-17 06:27N 22°36' E 120°17'0 0.0
2018-Jun-17 05:57N 22°36' E 120°17'0 0.0
2018-Jun-17 05:27N 22°36' E 120°17'0 0.0
2018-Jun-17 04:45N 22°36' E 120°17'0 0.0
2018-Jun-17 04:27N 22°36' E 120°17'0 0.0
2018-Jun-17 03:57N 22°36' E 120°17'0 0.0
2018-Jun-17 03:27N 22°36' E 120°17'0 0.0
2018-Jun-17 02:56N 22°36' E 120°17'0 0.2
2018-Jun-17 02:30N 22°36' E 120°17'3 5.1
2018-Jun-17 02:00N 22°38' E 120°14'4 7.6
2018-Jun-17 01:30N 22°36' E 120°11'510.0
2018-Jun-17 01:00N 22°31' E 120°10'611.6
2018-Jun-17 00:30N 22°25' E 120°12'611.9
2018-Jun-16 23:58N 22°19' E 120°13'54433.7
2018-Jun-16 07:50N 31°14' E 122°05'814.2
2018-Jun-16 07:14N 31°15' E 121°55'  
Track history (hours):
 
Tides and Currents Weather Stations Pressure Air Temp Water Temp Dewpoint Dewpoint Depression Visibility Wind Speed Wind Dir Waves Ship Positions

Bei Lun Hai 72

Last reported at 2018-Jun-22 19:55 UTC. Time now 2018-Jun-22 20:32 UTC.
Position N 38°26' E 118°14'.

Length 225 m; draft 7.1 m.

Type: Cargo ship. MMSI: 414032000.

Date/timePositionNaut miles runAvg speedWind from/ knotsBaromVisibWave heightAir tempDewpointWater temp
2018-Jun-22 19:55N 38°26' E 118°14'0 0.0
2018-Jun-21 15:37N 38°26' E 118°14'0 0.0
2018-Jun-20 16:46N 38°26' E 118°14'0 0.0
2018-Jun-20 16:28N 38°26' E 118°14'0 0.0
2018-Jun-20 06:43N 38°26' E 118°14'0 0.2
2018-Jun-20 06:25N 38°26' E 118°14'0 0.0
2018-Jun-20 05:58N 38°26' E 118°14'0 0.0
2018-Jun-20 05:01N 38°26' E 118°14'976662.4
2018-Jun-20 03:33N 22°15' E 120°14'113.0
2018-Jun-20 03:29N 22°16' E 120°13'612.9
2018-Jun-20 03:00N 22°21' E 120°11'713.4
2018-Jun-20 02:30N 22°27' E 120°08'813.3
2018-Jun-20 01:56N 22°35' E 120°07'613.2
2018-Jun-20 01:30N 22°40' E 120°04'612.9
2018-Jun-20 01:00N 22°46' E 120°02'612.5
2018-Jun-20 00:29N 22°52' E 119°60'5 0.2
2018-Jun-18 20:50N 22°48' E 120°03'310.6
2018-Jun-18 20:30N 22°45' E 120°05'611.5
2018-Jun-18 20:00N 22°41' E 120°09'611.2
2018-Jun-18 19:30N 22°38' E 120°14'3 5.7
2018-Jun-18 19:00N 22°36' E 120°17'0 0.0
2018-Jun-18 18:21N 22°36' E 120°17'0 0.0
2018-Jun-18 17:51N 22°36' E 120°17'0 0.0
2018-Jun-18 17:27N 22°36' E 120°17'0 0.0
2018-Jun-18 16:57N 22°36' E 120°17'0 0.0
2018-Jun-18 16:21N 22°36' E 120°17'0 0.0
2018-Jun-18 15:45N 22°36' E 120°17'0 0.0
2018-Jun-18 15:09N 22°36' E 120°17'0 0.0
2018-Jun-18 14:51N 22°36' E 120°17'0 0.0
2018-Jun-18 14:27N 22°36' E 120°17'0 0.0
2018-Jun-18 13:51N 22°36' E 120°17'0 0.0
2018-Jun-18 13:09N 22°36' E 120°17'0 0.0
2018-Jun-18 12:57N 22°36' E 120°17'0 0.0
2018-Jun-18 12:27N 22°36' E 120°17'0 0.0
2018-Jun-18 11:45N 22°36' E 120°17'0 0.0
2018-Jun-18 11:21N 22°36' E 120°17'0 0.0
2018-Jun-18 10:51N 22°36' E 120°17'0 0.0
2018-Jun-18 10:27N 22°36' E 120°17'0 0.0
2018-Jun-18 09:57N 22°36' E 120°17'0 0.0
2018-Jun-18 09:27N 22°36' E 120°17'0 0.0
2018-Jun-18 08:57N 22°36' E 120°17'0 0.0
2018-Jun-18 08:27N 22°36' E 120°17'0 0.0
2018-Jun-18 07:57N 22°36' E 120°17'0 0.0
2018-Jun-18 07:09N 22°36' E 120°17'0 0.0
2018-Jun-18 06:57N 22°36' E 120°17'0 0.0
2018-Jun-18 06:15N 22°36' E 120°17'0 0.0
2018-Jun-18 05:57N 22°36' E 120°17'0 0.0
2018-Jun-18 05:21N 22°36' E 120°17'0 0.0
2018-Jun-18 04:57N 22°36' E 120°17'9482315.9
2018-Jun-18 04:33N 38°23' E 119°18'94810432.1
2018-Jun-18 04:27N 22°36' E 120°17'9472363.1
2018-Jun-18 04:03N 38°22' E 119°26'112.8
2018-Jun-18 03:58N 38°22' E 119°28'94687356.1
2018-Jun-18 03:57N 22°36' E 120°17'9452061.5
2018-Jun-18 03:30N 38°21' E 119°35'94522540.3
2018-Jun-18 03:27N 22°36' E 120°17'0 0.0
2018-Jun-18 02:57N 22°36' E 120°17'0 0.0
2018-Jun-18 02:27N 22°36' E 120°17'0 0.0
2018-Jun-18 01:57N 22°36' E 120°17'9385945.0
2018-Jun-18 01:48N 38°14' E 120°00'9382738.7
2018-Jun-18 01:27N 22°36' E 120°17'9341958.6
2018-Jun-18 00:58N 38°11' E 120°12'93440035.6
2018-Jun-18 00:57N 22°36' E 120°17'9322101.6
2018-Jun-18 00:30N 38°08' E 120°18'93216362.0
2018-Jun-18 00:27N 22°36' E 120°17'9292098.9
2018-Jun-18 00:00N 38°06' E 120°25'92916241.0
2018-Jun-17 23:57N 22°36' E 120°17'9272081.4
2018-Jun-17 23:30N 38°04' E 120°32'92716947.0
2018-Jun-17 23:27N 22°36' E 120°17'9262091.8
2018-Jun-17 23:00N 38°02' E 120°39'92616107.8
2018-Jun-17 22:57N 22°36' E 120°17'9252078.2
2018-Jun-17 22:30N 38°01' E 120°46'92516730.3
2018-Jun-17 22:27N 22°36' E 120°17'9242089.0
2018-Jun-17 22:00N 37°60' E 120°54'92415912.2
2018-Jun-17 21:57N 22°36' E 120°17'9232086.5
2018-Jun-17 21:30N 37°58' E 121°02'92315893.5
2018-Jun-17 21:27N 22°36' E 120°17'9222025.7
2018-Jun-17 21:00N 37°57' E 121°10'92220622.0
2018-Jun-17 20:57N 22°36' E 120°17'9221929.9
2018-Jun-17 20:28N 37°56' E 121°18'92240457.4
2018-Jun-17 20:27N 22°36' E 120°17'0 0.0
2018-Jun-17 19:57N 22°36' E 120°17'0 0.0
2018-Jun-17 19:27N 22°36' E 120°17'0 0.0
2018-Jun-17 18:57N 22°36' E 120°17'0 0.0
2018-Jun-17 18:27N 22°36' E 120°17'0 0.0
2018-Jun-17 17:57N 22°36' E 120°17'0 0.0
2018-Jun-17 17:15N 22°36' E 120°17'0 0.0
2018-Jun-17 16:57N 22°36' E 120°17'0 0.0
2018-Jun-17 16:27N 22°36' E 120°17'0 0.0
2018-Jun-17 15:57N 22°36' E 120°17'0 0.0
2018-Jun-17 15:27N 22°36' E 120°17'0 0.0
2018-Jun-17 14:57N 22°36' E 120°17'0 0.0
2018-Jun-17 14:27N 22°36' E 120°17'0 0.0
2018-Jun-17 13:57N 22°36' E 120°17'0 0.0
2018-Jun-17 13:27N 22°36' E 120°17'0 0.0
2018-Jun-17 12:57N 22°36' E 120°17'0 0.0
2018-Jun-17 12:27N 22°36' E 120°17'0 0.0
2018-Jun-17 11:51N 22°36' E 120°17'0 0.0
2018-Jun-17 11:27N 22°36' E 120°17'0 0.0
2018-Jun-17 10:51N 22°36' E 120°17'0 0.0
2018-Jun-17 10:27N 22°36' E 120°17'0 0.0
2018-Jun-17 09:57N 22°36' E 120°17'0 0.0
2018-Jun-17 09:27N 22°36' E 120°17'0 0.0
2018-Jun-17 08:57N 22°36' E 120°17'0 0.0
2018-Jun-17 08:21N 22°36' E 120°17'0 0.0
2018-Jun-17 07:57N 22°36' E 120°17'0 0.0
2018-Jun-17 07:21N 22°36' E 120°17'0 0.0
2018-Jun-17 06:57N 22°36' E 120°17'0 0.0
2018-Jun-17 06:27N 22°36' E 120°17'0 0.0
2018-Jun-17 05:57N 22°36' E 120°17'0 0.0
2018-Jun-17 05:27N 22°36' E 120°17'0 0.0
2018-Jun-17 04:45N 22°36' E 120°17'0 0.0
2018-Jun-17 04:27N 22°36' E 120°17'0 0.0
2018-Jun-17 03:57N 22°36' E 120°17'0 0.0
2018-Jun-17 03:27N 22°36' E 120°17'0 0.0
2018-Jun-17 02:56N 22°36' E 120°17'0 0.2
2018-Jun-17 02:30N 22°36' E 120°17'3 5.1
2018-Jun-17 02:00N 22°38' E 120°14'4 7.6
2018-Jun-17 01:30N 22°36' E 120°11'510.0
2018-Jun-17 01:00N 22°31' E 120°10'611.6
2018-Jun-17 00:30N 22°25' E 120°12'611.9
2018-Jun-16 23:58N 22°19' E 120°13'54433.7
2018-Jun-16 07:50N 31°14' E 122°05'814.2
2018-Jun-16 07:14N 31°15' E 121°55'  

Dump ship's entire track history